sensor_id;sensor_type;location;lat;lon;timestamp;P1;durP1;ratioP1;P2;durP2;ratioP2
12059;SDS011;6091;51.432;6.880;2023-01-01T00:00:43;1.48;;;1.38;;
12059;SDS011;6091;51.432;6.880;2023-01-01T00:03:10;1.52;;;1.40;;
12059;SDS011;6091;51.432;6.880;2023-01-01T00:05:37;1.27;;;1.17;;
12059;SDS011;6091;51.432;6.880;2023-01-01T00:08:07;1.60;;;1.50;;
12059;SDS011;6091;51.432;6.880;2023-01-01T00:10:34;1.50;;;1.40;;
12059;SDS011;6091;51.432;6.880;2023-01-01T00:13:02;1.63;;;1.52;;
12059;SDS011;6091;51.432;6.880;2023-01-01T00:15:32;1.98;;;1.60;;
12059;SDS011;6091;51.432;6.880;2023-01-01T00:17:59;1.58;;;1.30;;
12059;SDS011;6091;51.432;6.880;2023-01-01T00:20:26;1.50;;;1.40;;
12059;SDS011;6091;51.432;6.880;2023-01-01T00:23:00;1.83;;;1.58;;
12059;SDS011;6091;51.432;6.880;2023-01-01T00:25:27;1.83;;;1.63;;
12059;SDS011;6091;51.432;6.880;2023-01-01T00:27:54;1.65;;;1.55;;
12059;SDS011;6091;51.432;6.880;2023-01-01T00:30:21;2.22;;;1.40;;
12059;SDS011;6091;51.432;6.880;2023-01-01T00:32:50;1.65;;;1.30;;
12059;SDS011;6091;51.432;6.880;2023-01-01T00:35:23;1.50;;;1.40;;
12059;SDS011;6091;51.432;6.880;2023-01-01T00:37:51;1.67;;;1.58;;
12059;SDS011;6091;51.432;6.880;2023-01-01T00:40:20;1.40;;;1.30;;
12059;SDS011;6091;51.432;6.880;2023-01-01T00:42:50;1.80;;;1.58;;
12059;SDS011;6091;51.432;6.880;2023-01-01T00:45:17;1.63;;;1.27;;
12059;SDS011;6091;51.432;6.880;2023-01-01T00:47:48;1.50;;;1.40;;
12059;SDS011;6091;51.432;6.880;2023-01-01T00:50:25;1.30;;;1.20;;
12059;SDS011;6091;51.432;6.880;2023-01-01T00:52:52;1.63;;;1.10;;
12059;SDS011;6091;51.432;6.880;2023-01-01T00:55:20;1.52;;;1.42;;
12059;SDS011;6091;51.432;6.880;2023-01-01T00:57:46;1.55;;;1.45;;
12059;SDS011;6091;51.432;6.880;2023-01-01T01:00:14;1.40;;;1.30;;
12059;SDS011;6091;51.432;6.880;2023-01-01T01:02:41;1.92;;;1.50;;
12059;SDS011;6091;51.432;6.880;2023-01-01T01:05:08;1.50;;;1.40;;
12059;SDS011;6091;51.432;6.880;2023-01-01T01:07:36;1.65;;;1.50;;
12059;SDS011;6091;51.432;6.880;2023-01-01T01:10:04;2.08;;;1.42;;
12059;SDS011;6091;51.432;6.880;2023-01-01T01:12:33;1.60;;;1.50;;
12059;SDS011;6091;51.432;6.880;2023-01-01T01:15:01;1.95;;;1.70;;
12059;SDS011;6091;51.432;6.880;2023-01-01T01:17:30;1.70;;;1.60;;
12059;SDS011;6091;51.432;6.880;2023-01-01T01:19:57;2.33;;;1.83;;
12059;SDS011;6091;51.432;6.880;2023-01-01T01:22:24;1.90;;;1.73;;
12059;SDS011;6091;51.432;6.880;2023-01-01T01:24:54;1.55;;;1.45;;
12059;SDS011;6091;51.432;6.880;2023-01-01T01:27:22;1.98;;;1.80;;
12059;SDS011;6091;51.432;6.880;2023-01-01T01:29:49;1.85;;;1.52;;
12059;SDS011;6091;51.432;6.880;2023-01-01T01:32:23;1.40;;;1.30;;
12059;SDS011;6091;51.432;6.880;2023-01-01T01:34:50;1.45;;;1.35;;
12059;SDS011;6091;51.432;6.880;2023-01-01T01:37:16;1.80;;;1.70;;
12059;SDS011;6091;51.432;6.880;2023-01-01T01:39:43;1.77;;;1.40;;
12059;SDS011;6091;51.432;6.880;2023-01-01T01:42:19;1.70;;;1.60;;
12059;SDS011;6091;51.432;6.880;2023-01-01T01:47:32;1.60;;;1.50;;
12059;SDS011;6091;51.432;6.880;2023-01-01T01:55:51;1.30;;;1.20;;
12059;SDS011;6091;51.432;6.880;2023-01-01T01:58:26;1.70;;;1.60;;
12059;SDS011;6091;51.432;6.880;2023-01-01T02:00:56;2.22;;;1.83;;
12059;SDS011;6091;51.432;6.880;2023-01-01T02:03:26;1.50;;;1.40;;
12059;SDS011;6091;51.432;6.880;2023-01-01T02:06:09;1.70;;;1.40;;
12059;SDS011;6091;51.432;6.880;2023-01-01T02:08:37;1.73;;;1.63;;
12059;SDS011;6091;51.432;6.880;2023-01-01T02:11:04;1.60;;;1.50;;
12059;SDS011;6091;51.432;6.880;2023-01-01T02:13:31;1.65;;;1.35;;
12059;SDS011;6091;51.432;6.880;2023-01-01T02:16:10;1.58;;;1.48;;
12059;SDS011;6091;51.432;6.880;2023-01-01T02:18:57;1.55;;;1.42;;
12059;SDS011;6091;51.432;6.880;2023-01-01T02:22:27;1.35;;;1.25;;
12059;SDS011;6091;51.432;6.880;2023-01-01T02:30:37;1.73;;;1.52;;
12059;SDS011;6091;51.432;6.880;2023-01-01T02:33:09;1.70;;;1.60;;
12059;SDS011;6091;51.432;6.880;2023-01-01T02:35:44;1.65;;;1.45;;
12059;SDS011;6091;51.432;6.880;2023-01-01T02:38:21;1.45;;;1.35;;
12059;SDS011;6091;51.432;6.880;2023-01-01T02:40:57;1.52;;;1.40;;
12059;SDS011;6091;51.432;6.880;2023-01-01T02:44:01;1.73;;;1.63;;
12059;SDS011;6091;51.432;6.880;2023-01-01T02:46:32;1.50;;;1.40;;
12059;SDS011;6091;51.432;6.880;2023-01-01T02:49:01;1.60;;;1.50;;
12059;SDS011;6091;51.432;6.880;2023-01-01T03:00:11;1.58;;;1.48;;
12059;SDS011;6091;51.432;6.880;2023-01-01T03:05:35;1.50;;;1.40;;
12059;SDS011;6091;51.432;6.880;2023-01-01T03:14:13;1.60;;;1.50;;
12059;SDS011;6091;51.432;6.880;2023-01-01T03:20:00;1.33;;;1.23;;
12059;SDS011;6091;51.432;6.880;2023-01-01T03:22:37;1.63;;;1.52;;
12059;SDS011;6091;51.432;6.880;2023-01-01T03:25:25;1.83;;;1.73;;
12059;SDS011;6091;51.432;6.880;2023-01-01T03:28:01;1.73;;;1.42;;
12059;SDS011;6091;51.432;6.880;2023-01-01T03:30:33;1.50;;;1.40;;
12059;SDS011;6091;51.432;6.880;2023-01-01T03:33:11;1.88;;;1.77;;
12059;SDS011;6091;51.432;6.880;2023-01-01T03:38:53;1.48;;;1.38;;
12059;SDS011;6091;51.432;6.880;2023-01-01T03:41:41;1.70;;;1.60;;
12059;SDS011;6091;51.432;6.880;2023-01-01T03:46:52;1.40;;;1.30;;
12059;SDS011;6091;51.432;6.880;2023-01-01T03:49:20;1.23;;;1.20;;
12059;SDS011;6091;51.432;6.880;2023-01-01T03:58:00;1.50;;;1.40;;
12059;SDS011;6091;51.432;6.880;2023-01-01T04:00:34;1.40;;;1.30;;
12059;SDS011;6091;51.432;6.880;2023-01-01T04:03:29;1.40;;;1.30;;
12059;SDS011;6091;51.432;6.880;2023-01-01T04:06:00;1.27;;;1.17;;
12059;SDS011;6091;51.432;6.880;2023-01-01T04:08:30;1.55;;;1.45;;
12059;SDS011;6091;51.432;6.880;2023-01-01T04:11:02;1.50;;;1.40;;
12059;SDS011;6091;51.432;6.880;2023-01-01T04:13:55;1.58;;;1.48;;
12059;SDS011;6091;51.432;6.880;2023-01-01T04:16:22;1.58;;;1.40;;
12059;SDS011;6091;51.432;6.880;2023-01-01T04:18:51;1.40;;;1.30;;
12059;SDS011;6091;51.432;6.880;2023-01-01T04:21:18;1.30;;;1.20;;
12059;SDS011;6091;51.432;6.880;2023-01-01T04:23:45;1.40;;;1.30;;
12059;SDS011;6091;51.432;6.880;2023-01-01T04:26:13;1.33;;;1.20;;
12059;SDS011;6091;51.432;6.880;2023-01-01T04:28:41;1.40;;;1.30;;
12059;SDS011;6091;51.432;6.880;2023-01-01T04:31:09;1.45;;;1.35;;
12059;SDS011;6091;51.432;6.880;2023-01-01T04:33:37;1.50;;;1.40;;
12059;SDS011;6091;51.432;6.880;2023-01-01T04:36:05;1.50;;;1.40;;
12059;SDS011;6091;51.432;6.880;2023-01-01T04:38:35;1.40;;;1.30;;
12059;SDS011;6091;51.432;6.880;2023-01-01T04:41:03;1.33;;;1.23;;
12059;SDS011;6091;51.432;6.880;2023-01-01T04:43:30;1.30;;;1.20;;
12059;SDS011;6091;51.432;6.880;2023-01-01T04:45:58;1.42;;;1.33;;
12059;SDS011;6091;51.432;6.880;2023-01-01T04:48:29;1.35;;;1.27;;
12059;SDS011;6091;51.432;6.880;2023-01-01T04:50:58;1.40;;;1.30;;
12059;SDS011;6091;51.432;6.880;2023-01-01T04:53:30;1.67;;;1.33;;
12059;SDS011;6091;51.432;6.880;2023-01-01T04:56:03;1.35;;;1.25;;
12059;SDS011;6091;51.432;6.880;2023-01-01T04:58:32;1.70;;;1.60;;
12059;SDS011;6091;51.432;6.880;2023-01-01T05:01:02;1.25;;;1.23;;
12059;SDS011;6091;51.432;6.880;2023-01-01T05:03:29;1.50;;;1.40;;
12059;SDS011;6091;51.432;6.880;2023-01-01T05:08:37;1.35;;;1.25;;
12059;SDS011;6091;51.432;6.880;2023-01-01T05:11:07;1.40;;;1.30;;
12059;SDS011;6091;51.432;6.880;2023-01-01T05:13:39;1.40;;;1.30;;
12059;SDS011;6091;51.432;6.880;2023-01-01T05:16:10;2.00;;;1.20;;
12059;SDS011;6091;51.432;6.880;2023-01-01T05:18:40;1.17;;;1.10;;
12059;SDS011;6091;51.432;6.880;2023-01-01T05:21:17;1.48;;;1.38;;
12059;SDS011;6091;51.432;6.880;2023-01-01T05:23:53;1.20;;;1.20;;
12059;SDS011;6091;51.432;6.880;2023-01-01T05:26:25;1.50;;;1.40;;
12059;SDS011;6091;51.432;6.880;2023-01-01T05:28:58;1.20;;;1.10;;
12059;SDS011;6091;51.432;6.880;2023-01-01T05:31:28;1.00;;;1.00;;
12059;SDS011;6091;51.432;6.880;2023-01-01T05:33:58;1.27;;;1.17;;
12059;SDS011;6091;51.432;6.880;2023-01-01T05:36:27;1.27;;;1.17;;
12059;SDS011;6091;51.432;6.880;2023-01-01T05:39:04;1.20;;;1.10;;
12059;SDS011;6091;51.432;6.880;2023-01-01T05:41:33;1.30;;;1.20;;
12059;SDS011;6091;51.432;6.880;2023-01-01T05:44:04;0.95;;;0.95;;
12059;SDS011;6091;51.432;6.880;2023-01-01T05:46:34;1.35;;;1.25;;
12059;SDS011;6091;51.432;6.880;2023-01-01T05:49:02;1.10;;;1.00;;
12059;SDS011;6091;51.432;6.880;2023-01-01T05:51:30;1.08;;;1.00;;
12059;SDS011;6091;51.432;6.880;2023-01-01T05:53:59;1.02;;;1.02;;
12059;SDS011;6091;51.432;6.880;2023-01-01T05:56:26;1.45;;;1.35;;
12059;SDS011;6091;51.432;6.880;2023-01-01T05:58:54;1.27;;;1.17;;
12059;SDS011;6091;51.432;6.880;2023-01-01T06:01:25;1.20;;;1.10;;
12059;SDS011;6091;51.432;6.880;2023-01-01T06:03:56;1.38;;;1.05;;
12059;SDS011;6091;51.432;6.880;2023-01-01T06:06:26;1.30;;;1.20;;
12059;SDS011;6091;51.432;6.880;2023-01-01T06:08:57;1.50;;;1.40;;
12059;SDS011;6091;51.432;6.880;2023-01-01T06:11:26;1.00;;;1.00;;
12059;SDS011;6091;51.432;6.880;2023-01-01T06:13:58;1.38;;;1.10;;
12059;SDS011;6091;51.432;6.880;2023-01-01T06:16:26;1.48;;;1.38;;
12059;SDS011;6091;51.432;6.880;2023-01-01T06:18:55;1.30;;;1.20;;
12059;SDS011;6091;51.432;6.880;2023-01-01T06:21:23;1.17;;;1.15;;
12059;SDS011;6091;51.432;6.880;2023-01-01T06:23:55;1.25;;;1.15;;
12059;SDS011;6091;51.432;6.880;2023-01-01T06:26:25;1.30;;;1.20;;
12059;SDS011;6091;51.432;6.880;2023-01-01T06:28:56;1.13;;;1.02;;
12059;SDS011;6091;51.432;6.880;2023-01-01T06:31:25;1.08;;;1.00;;
12059;SDS011;6091;51.432;6.880;2023-01-01T06:33:54;1.13;;;1.02;;
12059;SDS011;6091;51.432;6.880;2023-01-01T06:36:24;1.15;;;1.10;;
12059;SDS011;6091;51.432;6.880;2023-01-01T06:38:53;1.55;;;1.10;;
12059;SDS011;6091;51.432;6.880;2023-01-01T06:41:24;1.00;;;1.00;;
12059;SDS011;6091;51.432;6.880;2023-01-01T06:43:53;1.10;;;1.05;;
12059;SDS011;6091;51.432;6.880;2023-01-01T06:46:26;1.00;;;1.00;;
12059;SDS011;6091;51.432;6.880;2023-01-01T06:49:05;1.00;;;1.00;;
12059;SDS011;6091;51.432;6.880;2023-01-01T06:51:38;1.25;;;1.15;;
12059;SDS011;6091;51.432;6.880;2023-01-01T06:54:09;1.17;;;1.08;;
12059;SDS011;6091;51.432;6.880;2023-01-01T06:56:36;1.35;;;1.08;;
12059;SDS011;6091;51.432;6.880;2023-01-01T06:59:04;1.20;;;1.10;;
12059;SDS011;6091;51.432;6.880;2023-01-01T07:01:32;1.17;;;1.10;;
12059;SDS011;6091;51.432;6.880;2023-01-01T07:04:02;0.93;;;0.93;;
12059;SDS011;6091;51.432;6.880;2023-01-01T07:06:33;1.10;;;1.00;;
12059;SDS011;6091;51.432;6.880;2023-01-01T07:09:02;1.10;;;1.00;;
12059;SDS011;6091;51.432;6.880;2023-01-01T07:11:30;1.27;;;1.08;;
12059;SDS011;6091;51.432;6.880;2023-01-01T07:13:58;1.17;;;1.15;;
12059;SDS011;6091;51.432;6.880;2023-01-01T07:16:25;0.90;;;0.90;;
12059;SDS011;6091;51.432;6.880;2023-01-01T07:18:53;1.00;;;1.00;;
12059;SDS011;6091;51.432;6.880;2023-01-01T07:21:39;0.90;;;0.90;;
12059;SDS011;6091;51.432;6.880;2023-01-01T07:24:14;0.80;;;0.80;;
12059;SDS011;6091;51.432;6.880;2023-01-01T07:26:41;1.10;;;1.00;;
12059;SDS011;6091;51.432;6.880;2023-01-01T07:29:11;1.05;;;0.95;;
12059;SDS011;6091;51.432;6.880;2023-01-01T07:31:39;1.10;;;1.00;;
12059;SDS011;6091;51.432;6.880;2023-01-01T07:34:11;0.90;;;0.85;;
12059;SDS011;6091;51.432;6.880;2023-01-01T07:36:41;1.15;;;1.08;;
12059;SDS011;6091;51.432;6.880;2023-01-01T07:39:08;0.90;;;0.90;;
12059;SDS011;6091;51.432;6.880;2023-01-01T07:41:35;1.02;;;1.02;;
12059;SDS011;6091;51.432;6.880;2023-01-01T07:44:03;1.08;;;1.00;;
12059;SDS011;6091;51.432;6.880;2023-01-01T07:46:32;0.98;;;0.90;;
12059;SDS011;6091;51.432;6.880;2023-01-01T07:49:01;1.25;;;1.15;;
12059;SDS011;6091;51.432;6.880;2023-01-01T07:51:29;0.90;;;0.90;;
12059;SDS011;6091;51.432;6.880;2023-01-01T07:53:56;1.20;;;1.10;;
12059;SDS011;6091;51.432;6.880;2023-01-01T07:56:32;0.93;;;0.93;;
12059;SDS011;6091;51.432;6.880;2023-01-01T07:59:02;1.05;;;1.05;;
12059;SDS011;6091;51.432;6.880;2023-01-01T08:01:33;1.08;;;0.95;;
12059;SDS011;6091;51.432;6.880;2023-01-01T08:04:04;1.10;;;1.00;;
12059;SDS011;6091;51.432;6.880;2023-01-01T08:06:31;0.90;;;0.90;;
12059;SDS011;6091;51.432;6.880;2023-01-01T08:08:58;1.00;;;1.00;;
12059;SDS011;6091;51.432;6.880;2023-01-01T08:11:25;0.90;;;0.90;;
12059;SDS011;6091;51.432;6.880;2023-01-01T08:13:53;1.10;;;1.10;;
12059;SDS011;6091;51.432;6.880;2023-01-01T08:16:22;0.85;;;0.85;;
12059;SDS011;6091;51.432;6.880;2023-01-01T08:18:49;1.20;;;1.10;;
12059;SDS011;6091;51.432;6.880;2023-01-01T08:21:20;0.90;;;0.90;;
12059;SDS011;6091;51.432;6.880;2023-01-01T08:23:47;1.08;;;0.93;;
12059;SDS011;6091;51.432;6.880;2023-01-01T08:26:14;1.00;;;0.90;;
12059;SDS011;6091;51.432;6.880;2023-01-01T08:28:43;0.98;;;0.98;;
12059;SDS011;6091;51.432;6.880;2023-01-01T08:31:10;1.10;;;1.00;;
12059;SDS011;6091;51.432;6.880;2023-01-01T08:33:40;1.10;;;1.00;;
12059;SDS011;6091;51.432;6.880;2023-01-01T08:36:08;1.17;;;1.10;;
12059;SDS011;6091;51.432;6.880;2023-01-01T08:38:39;0.90;;;0.90;;
12059;SDS011;6091;51.432;6.880;2023-01-01T08:41:06;0.80;;;0.80;;
12059;SDS011;6091;51.432;6.880;2023-01-01T08:43:33;0.90;;;0.90;;
12059;SDS011;6091;51.432;6.880;2023-01-01T08:46:00;0.80;;;0.80;;
12059;SDS011;6091;51.432;6.880;2023-01-01T08:48:27;0.90;;;0.90;;
12059;SDS011;6091;51.432;6.880;2023-01-01T08:50:56;0.90;;;0.80;;
12059;SDS011;6091;51.432;6.880;2023-01-01T08:53:26;0.82;;;0.82;;
12059;SDS011;6091;51.432;6.880;2023-01-01T08:55:58;0.90;;;0.90;;
12059;SDS011;6091;51.432;6.880;2023-01-01T08:58:38;1.17;;;1.08;;
12059;SDS011;6091;51.432;6.880;2023-01-01T09:01:06;1.20;;;1.10;;
12059;SDS011;6091;51.432;6.880;2023-01-01T09:03:34;0.90;;;0.90;;
12059;SDS011;6091;51.432;6.880;2023-01-01T09:06:02;1.67;;;0.90;;
12059;SDS011;6091;51.432;6.880;2023-01-01T09:08:32;0.90;;;0.90;;
12059;SDS011;6091;51.432;6.880;2023-01-01T09:11:01;1.40;;;1.10;;
12059;SDS011;6091;51.432;6.880;2023-01-01T09:13:29;1.02;;;0.95;;
12059;SDS011;6091;51.432;6.880;2023-01-01T09:16:01;1.30;;;1.10;;
12059;SDS011;6091;51.432;6.880;2023-01-01T09:18:28;0.80;;;0.80;;
12059;SDS011;6091;51.432;6.880;2023-01-01T09:20:55;0.80;;;0.80;;
12059;SDS011;6091;51.432;6.880;2023-01-01T09:23:22;1.10;;;1.00;;
12059;SDS011;6091;51.432;6.880;2023-01-01T09:25:49;0.93;;;0.88;;
12059;SDS011;6091;51.432;6.880;2023-01-01T09:28:16;1.10;;;1.00;;
12059;SDS011;6091;51.432;6.880;2023-01-01T09:30:51;1.13;;;0.90;;
12059;SDS011;6091;51.432;6.880;2023-01-01T09:33:18;1.02;;;0.80;;
12059;SDS011;6091;51.432;6.880;2023-01-01T09:35:46;1.10;;;1.00;;
12059;SDS011;6091;51.432;6.880;2023-01-01T09:38:13;0.95;;;0.85;;
12059;SDS011;6091;51.432;6.880;2023-01-01T09:46:06;0.95;;;0.90;;
12059;SDS011;6091;51.432;6.880;2023-01-01T09:48:53;1.13;;;0.70;;
12059;SDS011;6091;51.432;6.880;2023-01-01T09:51:30;0.80;;;0.80;;
12059;SDS011;6091;51.432;6.880;2023-01-01T09:54:14;1.23;;;0.95;;
12059;SDS011;6091;51.432;6.880;2023-01-01T09:56:55;0.70;;;0.70;;
12059;SDS011;6091;51.432;6.880;2023-01-01T09:59:26;0.77;;;0.77;;
12059;SDS011;6091;51.432;6.880;2023-01-01T10:02:01;1.10;;;1.00;;
12059;SDS011;6091;51.432;6.880;2023-01-01T10:13:16;0.80;;;0.80;;
12059;SDS011;6091;51.432;6.880;2023-01-01T10:15:54;0.90;;;0.90;;
12059;SDS011;6091;51.432;6.880;2023-01-01T10:18:30;0.90;;;0.90;;
12059;SDS011;6091;51.432;6.880;2023-01-01T10:27:12;1.05;;;1.00;;
12059;SDS011;6091;51.432;6.880;2023-01-01T10:30:02;0.63;;;0.63;;
12059;SDS011;6091;51.432;6.880;2023-01-01T10:32:55;0.60;;;0.60;;
12059;SDS011;6091;51.432;6.880;2023-01-01T10:35:45;0.75;;;0.75;;
12059;SDS011;6091;51.432;6.880;2023-01-01T10:38:22;0.80;;;0.80;;
12059;SDS011;6091;51.432;6.880;2023-01-01T10:40:52;0.80;;;0.80;;
12059;SDS011;6091;51.432;6.880;2023-01-01T10:43:40;0.80;;;0.80;;
12059;SDS011;6091;51.432;6.880;2023-01-01T10:46:09;0.80;;;0.80;;
12059;SDS011;6091;51.432;6.880;2023-01-01T10:48:40;1.13;;;1.02;;
12059;SDS011;6091;51.432;6.880;2023-01-01T10:51:52;0.80;;;0.80;;
12059;SDS011;6091;51.432;6.880;2023-01-01T10:54:37;0.93;;;0.80;;
12059;SDS011;6091;51.432;6.880;2023-01-01T11:00:15;0.68;;;0.68;;
12059;SDS011;6091;51.432;6.880;2023-01-01T11:05:58;0.70;;;0.70;;
12059;SDS011;6091;51.432;6.880;2023-01-01T11:08:53;0.70;;;0.70;;
12059;SDS011;6091;51.432;6.880;2023-01-01T11:11:29;1.08;;;0.80;;
12059;SDS011;6091;51.432;6.880;2023-01-01T11:14:04;1.00;;;1.00;;
12059;SDS011;6091;51.432;6.880;2023-01-01T11:16:53;0.90;;;0.90;;
12059;SDS011;6091;51.432;6.880;2023-01-01T11:22:04;0.85;;;0.85;;
12059;SDS011;6091;51.432;6.880;2023-01-01T11:24:32;0.90;;;0.90;;
12059;SDS011;6091;51.432;6.880;2023-01-01T11:29:46;0.93;;;0.80;;
12059;SDS011;6091;51.432;6.880;2023-01-01T11:32:22;0.65;;;0.60;;
12059;SDS011;6091;51.432;6.880;2023-01-01T11:35:02;0.90;;;0.80;;
12059;SDS011;6091;51.432;6.880;2023-01-01T11:37:39;0.70;;;0.70;;
12059;SDS011;6091;51.432;6.880;2023-01-01T11:40:20;0.80;;;0.80;;
12059;SDS011;6091;51.432;6.880;2023-01-01T11:42:57;0.75;;;0.75;;
12059;SDS011;6091;51.432;6.880;2023-01-01T11:45:40;0.65;;;0.65;;
12059;SDS011;6091;51.432;6.880;2023-01-01T11:48:13;0.90;;;0.88;;
12059;SDS011;6091;51.432;6.880;2023-01-01T11:51:08;0.80;;;0.80;;
12059;SDS011;6091;51.432;6.880;2023-01-01T11:54:19;0.95;;;0.88;;
12059;SDS011;6091;51.432;6.880;2023-01-01T11:56:57;0.82;;;0.80;;
12059;SDS011;6091;51.432;6.880;2023-01-01T11:59:49;0.80;;;0.80;;
12059;SDS011;6091;51.432;6.880;2023-01-01T12:02:36;1.13;;;1.02;;
12059;SDS011;6091;51.432;6.880;2023-01-01T12:06:04;0.60;;;0.60;;
12059;SDS011;6091;51.432;6.880;2023-01-01T12:08:40;0.80;;;0.80;;
12059;SDS011;6091;51.432;6.880;2023-01-01T12:11:26;0.77;;;0.77;;
12059;SDS011;6091;51.432;6.880;2023-01-01T12:17:31;0.73;;;0.73;;
12059;SDS011;6091;51.432;6.880;2023-01-01T12:20:16;0.63;;;0.63;;
12059;SDS011;6091;51.432;6.880;2023-01-01T12:22:53;1.45;;;0.80;;
12059;SDS011;6091;51.432;6.880;2023-01-01T12:25:23;0.68;;;0.68;;
12059;SDS011;6091;51.432;6.880;2023-01-01T12:36:31;0.65;;;0.65;;
12059;SDS011;6091;51.432;6.880;2023-01-01T12:42:59;0.60;;;0.60;;
12059;SDS011;6091;51.432;6.880;2023-01-01T13:01:05;0.60;;;0.60;;
12059;SDS011;6091;51.432;6.880;2023-01-01T13:04:00;1.15;;;0.80;;
12059;SDS011;6091;51.432;6.880;2023-01-01T13:06:33;0.70;;;0.70;;
12059;SDS011;6091;51.432;6.880;2023-01-01T13:09:13;0.80;;;0.80;;
12059;SDS011;6091;51.432;6.880;2023-01-01T13:11:57;0.70;;;0.70;;
12059;SDS011;6091;51.432;6.880;2023-01-01T13:14:37;0.88;;;0.88;;
12059;SDS011;6091;51.432;6.880;2023-01-01T13:22:51;0.70;;;0.70;;
12059;SDS011;6091;51.432;6.880;2023-01-01T13:25:20;0.90;;;0.82;;
12059;SDS011;6091;51.432;6.880;2023-01-01T13:44:10;0.73;;;0.73;;
12059;SDS011;6091;51.432;6.880;2023-01-01T14:07:44;0.75;;;0.75;;
12059;SDS011;6091;51.432;6.880;2023-01-01T14:10:20;0.70;;;0.70;;
12059;SDS011;6091;51.432;6.880;2023-01-01T14:15:35;0.98;;;0.70;;
12059;SDS011;6091;51.432;6.880;2023-01-01T14:18:14;0.77;;;0.77;;
12059;SDS011;6091;51.432;6.880;2023-01-01T14:20:52;0.70;;;0.70;;
12059;SDS011;6091;51.432;6.880;2023-01-01T14:26:12;0.60;;;0.60;;
12059;SDS011;6091;51.432;6.880;2023-01-01T14:28:46;0.80;;;0.80;;
12059;SDS011;6091;51.432;6.880;2023-01-01T14:31:20;0.80;;;0.80;;
12059;SDS011;6091;51.432;6.880;2023-01-01T14:33:52;0.70;;;0.70;;
12059;SDS011;6091;51.432;6.880;2023-01-01T14:38:57;0.60;;;0.60;;
12059;SDS011;6091;51.432;6.880;2023-01-01T14:41:33;0.50;;;0.50;;
12059;SDS011;6091;51.432;6.880;2023-01-01T14:46:41;0.60;;;0.60;;
12059;SDS011;6091;51.432;6.880;2023-01-01T14:49:21;0.60;;;0.60;;
12059;SDS011;6091;51.432;6.880;2023-01-01T14:52:05;0.68;;;0.68;;
12059;SDS011;6091;51.432;6.880;2023-01-01T14:54:54;0.90;;;0.90;;
12059;SDS011;6091;51.432;6.880;2023-01-01T14:57:26;1.05;;;0.73;;
12059;SDS011;6091;51.432;6.880;2023-01-01T14:59:57;0.70;;;0.70;;
12059;SDS011;6091;51.432;6.880;2023-01-01T15:02:28;0.68;;;0.60;;
12059;SDS011;6091;51.432;6.880;2023-01-01T15:05:08;0.63;;;0.63;;
12059;SDS011;6091;51.432;6.880;2023-01-01T15:08:02;0.70;;;0.70;;
12059;SDS011;6091;51.432;6.880;2023-01-01T15:10:34;0.75;;;0.75;;
12059;SDS011;6091;51.432;6.880;2023-01-01T15:13:04;0.50;;;0.50;;
12059;SDS011;6091;51.432;6.880;2023-01-01T15:15:34;0.50;;;0.50;;
12059;SDS011;6091;51.432;6.880;2023-01-01T15:21:03;0.90;;;0.80;;
12059;SDS011;6091;51.432;6.880;2023-01-01T15:24:21;0.70;;;0.70;;
12059;SDS011;6091;51.432;6.880;2023-01-01T15:26:55;0.60;;;0.60;;
12059;SDS011;6091;51.432;6.880;2023-01-01T15:29:38;0.63;;;0.60;;
12059;SDS011;6091;51.432;6.880;2023-01-01T15:32:11;0.80;;;0.70;;
12059;SDS011;6091;51.432;6.880;2023-01-01T15:34:41;0.52;;;0.52;;
12059;SDS011;6091;51.432;6.880;2023-01-01T15:42:39;0.65;;;0.65;;
12059;SDS011;6091;51.432;6.880;2023-01-01T15:47:52;0.60;;;0.60;;
12059;SDS011;6091;51.432;6.880;2023-01-01T15:50:32;0.50;;;0.50;;
12059;SDS011;6091;51.432;6.880;2023-01-01T15:53:20;0.55;;;0.55;;
12059;SDS011;6091;51.432;6.880;2023-01-01T15:55:59;0.68;;;0.63;;
12059;SDS011;6091;51.432;6.880;2023-01-01T15:58:38;0.60;;;0.60;;
12059;SDS011;6091;51.432;6.880;2023-01-01T16:01:18;0.60;;;0.60;;
12059;SDS011;6091;51.432;6.880;2023-01-01T16:03:49;0.80;;;0.80;;
12059;SDS011;6091;51.432;6.880;2023-01-01T16:06:28;0.60;;;0.60;;
12059;SDS011;6091;51.432;6.880;2023-01-01T16:08:55;0.80;;;0.80;;
12059;SDS011;6091;51.432;6.880;2023-01-01T16:11:22;0.80;;;0.80;;
12059;SDS011;6091;51.432;6.880;2023-01-01T16:13:49;0.60;;;0.60;;
12059;SDS011;6091;51.432;6.880;2023-01-01T16:18:54;0.80;;;0.80;;
12059;SDS011;6091;51.432;6.880;2023-01-01T16:21:23;0.60;;;0.60;;
12059;SDS011;6091;51.432;6.880;2023-01-01T16:23:54;0.60;;;0.60;;
12059;SDS011;6091;51.432;6.880;2023-01-01T16:26:21;0.73;;;0.60;;
12059;SDS011;6091;51.432;6.880;2023-01-01T16:28:48;0.50;;;0.50;;
12059;SDS011;6091;51.432;6.880;2023-01-01T16:31:25;0.60;;;0.60;;
12059;SDS011;6091;51.432;6.880;2023-01-01T16:33:54;0.80;;;0.80;;
12059;SDS011;6091;51.432;6.880;2023-01-01T16:36:24;0.63;;;0.63;;
12059;SDS011;6091;51.432;6.880;2023-01-01T16:38:54;0.80;;;0.80;;
12059;SDS011;6091;51.432;6.880;2023-01-01T16:41:22;0.60;;;0.60;;
12059;SDS011;6091;51.432;6.880;2023-01-01T16:43:52;0.80;;;0.70;;
12059;SDS011;6091;51.432;6.880;2023-01-01T16:46:19;0.60;;;0.60;;
12059;SDS011;6091;51.432;6.880;2023-01-01T16:48:46;0.63;;;0.63;;
12059;SDS011;6091;51.432;6.880;2023-01-01T16:51:21;0.80;;;0.68;;
12059;SDS011;6091;51.432;6.880;2023-01-01T16:53:52;0.73;;;0.73;;
12059;SDS011;6091;51.432;6.880;2023-01-01T16:56:19;0.60;;;0.60;;
12059;SDS011;6091;51.432;6.880;2023-01-01T16:58:46;0.60;;;0.60;;
12059;SDS011;6091;51.432;6.880;2023-01-01T17:01:17;0.80;;;0.80;;
12059;SDS011;6091;51.432;6.880;2023-01-01T17:03:44;0.63;;;0.63;;
12059;SDS011;6091;51.432;6.880;2023-01-01T17:06:12;1.05;;;0.60;;
12059;SDS011;6091;51.432;6.880;2023-01-01T17:08:39;0.60;;;0.60;;
12059;SDS011;6091;51.432;6.880;2023-01-01T17:11:10;1.20;;;0.63;;
12059;SDS011;6091;51.432;6.880;2023-01-01T17:13:43;0.65;;;0.65;;
12059;SDS011;6091;51.432;6.880;2023-01-01T17:16:12;0.60;;;0.60;;
12059;SDS011;6091;51.432;6.880;2023-01-01T17:18:52;0.55;;;0.55;;
12059;SDS011;6091;51.432;6.880;2023-01-01T17:21:40;0.80;;;0.77;;
12059;SDS011;6091;51.432;6.880;2023-01-01T17:24:07;0.68;;;0.68;;
12059;SDS011;6091;51.432;6.880;2023-01-01T17:26:34;0.70;;;0.70;;
12059;SDS011;6091;51.432;6.880;2023-01-01T17:29:01;0.55;;;0.55;;
12059;SDS011;6091;51.432;6.880;2023-01-01T17:31:30;0.60;;;0.60;;
12059;SDS011;6091;51.432;6.880;2023-01-01T17:33:57;0.60;;;0.60;;
12059;SDS011;6091;51.432;6.880;2023-01-01T17:36:24;0.60;;;0.60;;
12059;SDS011;6091;51.432;6.880;2023-01-01T17:38:54;0.57;;;0.57;;
12059;SDS011;6091;51.432;6.880;2023-01-01T17:41:22;0.70;;;0.70;;
12059;SDS011;6091;51.432;6.880;2023-01-01T17:43:50;0.70;;;0.70;;
12059;SDS011;6091;51.432;6.880;2023-01-01T17:46:27;0.60;;;0.60;;
12059;SDS011;6091;51.432;6.880;2023-01-01T17:48:56;0.70;;;0.70;;
12059;SDS011;6091;51.432;6.880;2023-01-01T17:51:23;0.60;;;0.60;;
12059;SDS011;6091;51.432;6.880;2023-01-01T17:53:52;0.70;;;0.70;;
12059;SDS011;6091;51.432;6.880;2023-01-01T17:56:21;0.70;;;0.70;;
12059;SDS011;6091;51.432;6.880;2023-01-01T17:58:50;0.60;;;0.60;;
12059;SDS011;6091;51.432;6.880;2023-01-01T18:03:50;0.70;;;0.70;;
12059;SDS011;6091;51.432;6.880;2023-01-01T18:06:23;0.50;;;0.50;;
12059;SDS011;6091;51.432;6.880;2023-01-01T18:08:57;0.60;;;0.52;;
12059;SDS011;6091;51.432;6.880;2023-01-01T18:11:27;0.60;;;0.60;;
12059;SDS011;6091;51.432;6.880;2023-01-01T18:13:59;0.43;;;0.43;;
12059;SDS011;6091;51.432;6.880;2023-01-01T18:16:29;0.57;;;0.57;;
12059;SDS011;6091;51.432;6.880;2023-01-01T18:18:59;0.70;;;0.70;;
12059;SDS011;6091;51.432;6.880;2023-01-01T18:21:26;0.70;;;0.70;;
12059;SDS011;6091;51.432;6.880;2023-01-01T18:23:54;0.47;;;0.47;;
12059;SDS011;6091;51.432;6.880;2023-01-01T18:26:23;0.60;;;0.60;;
12059;SDS011;6091;51.432;6.880;2023-01-01T18:28:54;0.68;;;0.63;;
12059;SDS011;6091;51.432;6.880;2023-01-01T18:31:24;0.70;;;0.70;;
12059;SDS011;6091;51.432;6.880;2023-01-01T18:33:54;0.80;;;0.60;;
12059;SDS011;6091;51.432;6.880;2023-01-01T18:36:22;0.50;;;0.50;;